sensor_id;sensor_type;location;lat;lon;timestamp;pressure;altitude;pressure_sealevel;temperature;humidity
8286;BME280;4181;43.416;24.598;2023-05-29T00:00:38;98415.69;;;19.01;100.00
8286;BME280;4181;43.416;24.598;2023-05-29T00:03:03;98414.75;;;18.97;100.00
8286;BME280;4181;43.416;24.598;2023-05-29T00:05:30;98410.16;;;18.76;100.00
8286;BME280;4181;43.416;24.598;2023-05-29T00:07:55;98396.47;;;18.68;100.00
8286;BME280;4181;43.416;24.598;2023-05-29T00:10:21;98381.66;;;18.72;100.00
8286;BME280;4181;43.416;24.598;2023-05-29T00:12:46;98373.44;;;18.76;100.00
8286;BME280;4181;43.416;24.598;2023-05-29T00:15:12;98370.78;;;18.79;100.00
8286;BME280;4181;43.416;24.598;2023-05-29T00:17:38;98364.78;;;18.89;100.00
8286;BME280;4181;43.416;24.598;2023-05-29T00:20:05;98357.78;;;18.92;100.00
8286;BME280;4181;43.416;24.598;2023-05-29T00:22:37;98352.94;;;18.89;100.00
8286;BME280;4181;43.416;24.598;2023-05-29T00:25:06;98345.19;;;18.94;100.00
8286;BME280;4181;43.416;24.598;2023-05-29T00:27:33;98342.09;;;18.96;100.00
8286;BME280;4181;43.416;24.598;2023-05-29T00:29:59;98343.59;;;18.93;100.00
8286;BME280;4181;43.416;24.598;2023-05-29T00:32:24;98337.03;;;18.98;100.00
8286;BME280;4181;43.416;24.598;2023-05-29T00:34:50;98343.50;;;18.90;100.00
8286;BME280;4181;43.416;24.598;2023-05-29T00:37:16;98340.16;;;18.84;100.00
8286;BME280;4181;43.416;24.598;2023-05-29T00:39:42;98328.63;;;18.94;100.00
8286;BME280;4181;43.416;24.598;2023-05-29T00:42:08;98326.44;;;19.00;100.00
8286;BME280;4181;43.416;24.598;2023-05-29T00:44:34;98332.91;;;18.92;100.00
8286;BME280;4181;43.416;24.598;2023-05-29T00:47:01;98317.13;;;18.92;100.00
8286;BME280;4181;43.416;24.598;2023-05-29T00:49:26;98318.16;;;18.88;100.00
8286;BME280;4181;43.416;24.598;2023-05-29T00:51:52;98313.56;;;18.92;100.00
8286;BME280;4181;43.416;24.598;2023-05-29T00:54:22;98301.94;;;18.86;100.00
8286;BME280;4181;43.416;24.598;2023-05-29T00:56:50;98292.84;;;18.86;100.00
8286;BME280;4181;43.416;24.598;2023-05-29T00:59:15;98293.06;;;18.81;100.00
8286;BME280;4181;43.416;24.598;2023-05-29T01:01:43;98292.53;;;18.75;100.00
8286;BME280;4181;43.416;24.598;2023-05-29T01:04:09;98278.47;;;18.80;100.00
8286;BME280;4181;43.416;24.598;2023-05-29T01:06:37;98271.88;;;18.97;100.00
8286;BME280;4181;43.416;24.598;2023-05-29T01:09:03;98266.78;;;18.99;100.00
8286;BME280;4181;43.416;24.598;2023-05-29T01:11:45;98271.97;;;19.01;100.00
8286;BME280;4181;43.416;24.598;2023-05-29T01:17:17;98279.59;;;18.91;100.00
8286;BME280;4181;43.416;24.598;2023-05-29T01:20:06;98274.06;;;18.91;100.00
8286;BME280;4181;43.416;24.598;2023-05-29T01:28:04;98253.53;;;18.65;100.00
8286;BME280;4181;43.416;24.598;2023-05-29T01:30:32;98234.78;;;18.70;100.00
8286;BME280;4181;43.416;24.598;2023-05-29T01:32:58;98227.13;;;18.79;100.00
8286;BME280;4181;43.416;24.598;2023-05-29T01:35:25;98220.09;;;18.82;100.00
8286;BME280;4181;43.416;24.598;2023-05-29T01:37:50;98202.91;;;18.88;100.00
8286;BME280;4181;43.416;24.598;2023-05-29T01:40:16;98202.31;;;18.95;100.00
8286;BME280;4181;43.416;24.598;2023-05-29T01:42:42;98196.53;;;19.00;100.00
8286;BME280;4181;43.416;24.598;2023-05-29T01:45:09;98199.50;;;19.07;100.00
8286;BME280;4181;43.416;24.598;2023-05-29T01:47:35;98189.16;;;19.04;100.00
8286;BME280;4181;43.416;24.598;2023-05-29T01:50:03;98185.41;;;19.12;100.00
8286;BME280;4181;43.416;24.598;2023-05-29T01:52:29;98192.53;;;19.13;100.00
8286;BME280;4181;43.416;24.598;2023-05-29T01:54:55;98184.00;;;19.18;100.00
8286;BME280;4181;43.416;24.598;2023-05-29T01:57:20;98191.41;;;19.14;100.00
8286;BME280;4181;43.416;24.598;2023-05-29T01:59:46;98201.59;;;19.26;100.00
8286;BME280;4181;43.416;24.598;2023-05-29T02:02:12;98215.41;;;19.26;100.00
8286;BME280;4181;43.416;24.598;2023-05-29T02:04:38;98216.66;;;19.28;100.00
8286;BME280;4181;43.416;24.598;2023-05-29T02:07:03;98228.41;;;19.25;100.00
8286;BME280;4181;43.416;24.598;2023-05-29T02:09:29;98256.69;;;19.19;100.00
8286;BME280;4181;43.416;24.598;2023-05-29T02:11:54;98260.88;;;19.13;100.00
8286;BME280;4181;43.416;24.598;2023-05-29T02:14:20;98266.66;;;19.08;100.00
8286;BME280;4181;43.416;24.598;2023-05-29T02:16:45;98267.31;;;19.05;100.00
8286;BME280;4181;43.416;24.598;2023-05-29T02:19:11;98273.59;;;18.89;100.00
8286;BME280;4181;43.416;24.598;2023-05-29T02:21:38;98272.47;;;18.90;100.00
8286;BME280;4181;43.416;24.598;2023-05-29T02:24:04;98273.25;;;18.91;100.00
8286;BME280;4181;43.416;24.598;2023-05-29T02:26:29;98273.22;;;19.03;100.00
8286;BME280;4181;43.416;24.598;2023-05-29T02:28:55;98264.22;;;19.06;100.00
8286;BME280;4181;43.416;24.598;2023-05-29T02:31:21;98264.78;;;19.12;100.00
8286;BME280;4181;43.416;24.598;2023-05-29T02:33:46;98266.72;;;19.11;100.00
8286;BME280;4181;43.416;24.598;2023-05-29T02:36:11;98272.72;;;19.13;100.00
8286;BME280;4181;43.416;24.598;2023-05-29T02:38:38;98281.56;;;19.19;100.00
8286;BME280;4181;43.416;24.598;2023-05-29T02:41:03;98288.31;;;19.06;100.00
8286;BME280;4181;43.416;24.598;2023-05-29T02:43:28;98297.31;;;19.03;100.00
8286;BME280;4181;43.416;24.598;2023-05-29T02:45:54;98299.25;;;19.02;100.00
8286;BME280;4181;43.416;24.598;2023-05-29T02:48:19;98309.94;;;19.04;100.00
8286;BME280;4181;43.416;24.598;2023-05-29T02:50:45;98309.50;;;19.02;100.00
8286;BME280;4181;43.416;24.598;2023-05-29T02:53:10;98307.69;;;18.93;100.00
8286;BME280;4181;43.416;24.598;2023-05-29T02:55:35;98301.81;;;18.95;100.00
8286;BME280;4181;43.416;24.598;2023-05-29T02:58:02;98301.69;;;18.91;100.00
8286;BME280;4181;43.416;24.598;2023-05-29T03:00:27;98297.53;;;18.98;100.00
8286;BME280;4181;43.416;24.598;2023-05-29T03:02:54;98298.22;;;18.94;100.00
8286;BME280;4181;43.416;24.598;2023-05-29T03:05:20;98287.97;;;18.95;100.00
8286;BME280;4181;43.416;24.598;2023-05-29T03:07:45;98299.28;;;18.90;100.00
8286;BME280;4181;43.416;24.598;2023-05-29T03:10:11;98301.94;;;18.86;100.00
8286;BME280;4181;43.416;24.598;2023-05-29T03:12:37;98309.53;;;18.89;100.00
8286;BME280;4181;43.416;24.598;2023-05-29T03:15:03;98314.88;;;18.82;100.00
8286;BME280;4181;43.416;24.598;2023-05-29T03:17:29;98329.81;;;18.81;100.00
8286;BME280;4181;43.416;24.598;2023-05-29T03:19:54;98330.06;;;18.76;100.00
8286;BME280;4181;43.416;24.598;2023-05-29T03:22:19;98331.22;;;18.75;100.00
8286;BME280;4181;43.416;24.598;2023-05-29T03:24:45;98344.09;;;18.71;100.00
8286;BME280;4181;43.416;24.598;2023-05-29T03:27:10;98334.88;;;18.79;100.00
8286;BME280;4181;43.416;24.598;2023-05-29T03:29:36;98334.44;;;18.77;100.00
8286;BME280;4181;43.416;24.598;2023-05-29T03:32:01;98347.69;;;18.72;100.00
8286;BME280;4181;43.416;24.598;2023-05-29T03:34:27;98338.44;;;18.80;100.00
8286;BME280;4181;43.416;24.598;2023-05-29T03:36:53;98342.81;;;18.81;100.00
8286;BME280;4181;43.416;24.598;2023-05-29T03:39:18;98332.22;;;18.83;100.00
8286;BME280;4181;43.416;24.598;2023-05-29T03:41:44;98345.94;;;18.79;100.00
8286;BME280;4181;43.416;24.598;2023-05-29T03:44:09;98350.22;;;18.77;100.00
8286;BME280;4181;43.416;24.598;2023-05-29T03:46:35;98350.22;;;18.77;100.00
8286;BME280;4181;43.416;24.598;2023-05-29T03:49:01;98351.66;;;18.86;100.00
8286;BME280;4181;43.416;24.598;2023-05-29T03:51:26;98358.25;;;18.82;100.00
8286;BME280;4181;43.416;24.598;2023-05-29T03:53:51;98353.31;;;18.75;100.00
8286;BME280;4181;43.416;24.598;2023-05-29T03:56:17;98348.00;;;18.82;100.00
8286;BME280;4181;43.416;24.598;2023-05-29T03:58:42;98370.59;;;18.60;100.00
8286;BME280;4181;43.416;24.598;2023-05-29T04:01:08;98363.22;;;18.64;100.00
8286;BME280;4181;43.416;24.598;2023-05-29T04:03:34;98353.56;;;18.70;100.00
8286;BME280;4181;43.416;24.598;2023-05-29T04:06:00;98355.16;;;18.71;100.00
8286;BME280;4181;43.416;24.598;2023-05-29T04:08:26;98336.38;;;18.77;100.00
8286;BME280;4181;43.416;24.598;2023-05-29T04:10:51;98347.09;;;18.78;100.00
8286;BME280;4181;43.416;24.598;2023-05-29T04:13:19;98340.41;;;18.79;100.00
8286;BME280;4181;43.416;24.598;2023-05-29T04:15:45;98332.56;;;18.93;100.00
8286;BME280;4181;43.416;24.598;2023-05-29T04:18:11;98327.00;;;19.06;100.00
8286;BME280;4181;43.416;24.598;2023-05-29T04:20:36;98326.50;;;19.16;100.00
8286;BME280;4181;43.416;24.598;2023-05-29T04:23:02;98317.16;;;19.20;100.00
8286;BME280;4181;43.416;24.598;2023-05-29T04:25:27;98308.97;;;19.24;100.00
8286;BME280;4181;43.416;24.598;2023-05-29T04:27:52;98310.19;;;19.38;100.00
8286;BME280;4181;43.416;24.598;2023-05-29T04:30:18;98289.34;;;19.56;100.00
8286;BME280;4181;43.416;24.598;2023-05-29T04:32:43;98289.00;;;19.73;100.00
8286;BME280;4181;43.416;24.598;2023-05-29T04:35:09;98299.72;;;19.75;100.00
8286;BME280;4181;43.416;24.598;2023-05-29T04:37:35;98304.00;;;19.72;100.00
8286;BME280;4181;43.416;24.598;2023-05-29T04:40:07;98326.16;;;19.72;100.00
8286;BME280;4181;43.416;24.598;2023-05-29T04:42:35;98346.38;;;19.61;100.00
8286;BME280;4181;43.416;24.598;2023-05-29T04:45:01;98370.78;;;19.43;100.00
8286;BME280;4181;43.416;24.598;2023-05-29T04:47:26;98372.97;;;19.38;100.00
8286;BME280;4181;43.416;24.598;2023-05-29T04:49:53;98378.38;;;19.46;100.00
8286;BME280;4181;43.416;24.598;2023-05-29T04:52:19;98369.66;;;19.60;100.00
8286;BME280;4181;43.416;24.598;2023-05-29T04:54:46;98364.06;;;19.72;100.00
8286;BME280;4181;43.416;24.598;2023-05-29T04:57:12;98353.50;;;19.89;100.00
8286;BME280;4181;43.416;24.598;2023-05-29T04:59:37;98357.94;;;20.09;100.00
8286;BME280;4181;43.416;24.598;2023-05-29T05:02:03;98362.31;;;20.23;100.00
8286;BME280;4181;43.416;24.598;2023-05-29T05:04:28;98376.06;;;20.19;100.00
8286;BME280;4181;43.416;24.598;2023-05-29T05:06:53;98391.63;;;19.96;100.00
8286;BME280;4181;43.416;24.598;2023-05-29T05:09:19;98419.38;;;19.84;100.00
8286;BME280;4181;43.416;24.598;2023-05-29T05:11:44;98419.16;;;19.77;100.00
8286;BME280;4181;43.416;24.598;2023-05-29T05:14:10;98399.53;;;19.82;100.00
8286;BME280;4181;43.416;24.598;2023-05-29T05:16:35;98399.38;;;19.90;100.00
8286;BME280;4181;43.416;24.598;2023-05-29T05:19:01;98395.63;;;19.98;100.00
8286;BME280;4181;43.416;24.598;2023-05-29T05:21:26;98382.63;;;19.99;100.00
8286;BME280;4181;43.416;24.598;2023-05-29T05:23:52;98388.50;;;19.97;100.00
8286;BME280;4181;43.416;24.598;2023-05-29T05:26:17;98392.16;;;20.01;100.00
8286;BME280;4181;43.416;24.598;2023-05-29T05:28:43;98383.94;;;20.05;100.00
8286;BME280;4181;43.416;24.598;2023-05-29T05:31:08;98396.47;;;19.99;100.00
8286;BME280;4181;43.416;24.598;2023-05-29T05:33:34;98384.84;;;20.09;100.00
8286;BME280;4181;43.416;24.598;2023-05-29T05:35:59;98369.94;;;20.13;100.00
8286;BME280;4181;43.416;24.598;2023-05-29T05:38:25;98370.16;;;20.21;100.00
8286;BME280;4181;43.416;24.598;2023-05-29T05:40:50;98360.22;;;20.35;100.00
8286;BME280;4181;43.416;24.598;2023-05-29T05:43:15;98358.53;;;20.46;100.00
8286;BME280;4181;43.416;24.598;2023-05-29T05:45:41;98383.03;;;20.44;100.00
8286;BME280;4181;43.416;24.598;2023-05-29T05:48:08;98374.97;;;20.55;100.00
8286;BME280;4181;43.416;24.598;2023-05-29T05:50:34;98380.66;;;20.77;100.00
8286;BME280;4181;43.416;24.598;2023-05-29T05:53:00;98374.69;;;21.10;100.00
8286;BME280;4181;43.416;24.598;2023-05-29T05:55:25;98379.63;;;21.35;100.00
8286;BME280;4181;43.416;24.598;2023-05-29T05:57:53;98399.34;;;21.50;100.00
8286;BME280;4181;43.416;24.598;2023-05-29T06:00:19;98393.34;;;21.67;100.00
8286;BME280;4181;43.416;24.598;2023-05-29T06:02:44;98403.22;;;21.83;100.00
8286;BME280;4181;43.416;24.598;2023-05-29T06:05:10;98425.28;;;21.95;100.00
8286;BME280;4181;43.416;24.598;2023-05-29T06:07:37;98434.63;;;22.06;100.00
8286;BME280;4181;43.416;24.598;2023-05-29T06:10:04;98446.88;;;22.24;100.00
8286;BME280;4181;43.416;24.598;2023-05-29T06:12:30;98470.84;;;22.32;100.00
8286;BME280;4181;43.416;24.598;2023-05-29T06:14:55;98478.56;;;22.42;100.00
8286;BME280;4181;43.416;24.598;2023-05-29T06:17:21;98481.28;;;22.58;100.00
8286;BME280;4181;43.416;24.598;2023-05-29T06:19:47;98477.59;;;22.77;100.00
8286;BME280;4181;43.416;24.598;2023-05-29T06:22:14;98479.94;;;22.97;100.00
8286;BME280;4181;43.416;24.598;2023-05-29T06:24:40;98475.78;;;23.10;100.00
8286;BME280;4181;43.416;24.598;2023-05-29T06:27:06;98496.88;;;23.11;100.00
8286;BME280;4181;43.416;24.598;2023-05-29T06:29:32;98504.47;;;23.14;100.00
8286;BME280;4181;43.416;24.598;2023-05-29T06:31:58;98538.19;;;23.09;100.00
8286;BME280;4181;43.416;24.598;2023-05-29T06:34:23;98551.13;;;22.98;100.00
8286;BME280;4181;43.416;24.598;2023-05-29T06:36:49;98549.66;;;22.85;100.00
8286;BME280;4181;43.416;24.598;2023-05-29T06:39:14;98563.78;;;22.73;100.00
8286;BME280;4181;43.416;24.598;2023-05-29T06:41:40;98553.97;;;22.60;100.00
8286;BME280;4181;43.416;24.598;2023-05-29T06:44:05;98553.75;;;22.49;100.00
8286;BME280;4181;43.416;24.598;2023-05-29T06:46:31;98561.88;;;22.39;100.00
8286;BME280;4181;43.416;24.598;2023-05-29T06:48:56;98556.59;;;22.34;100.00
8286;BME280;4181;43.416;24.598;2023-05-29T06:51:22;98544.19;;;22.28;100.00
8286;BME280;4181;43.416;24.598;2023-05-29T06:53:47;98542.41;;;22.39;100.00
8286;BME280;4181;43.416;24.598;2023-05-29T06:56:13;98510.38;;;22.64;100.00
8286;BME280;4181;43.416;24.598;2023-05-29T06:58:38;98497.25;;;22.87;100.00
8286;BME280;4181;43.416;24.598;2023-05-29T07:01:05;98498.19;;;22.95;100.00
8286;BME280;4181;43.416;24.598;2023-05-29T07:03:30;98520.25;;;22.84;100.00
8286;BME280;4181;43.416;24.598;2023-05-29T07:05:55;98525.06;;;22.87;100.00
8286;BME280;4181;43.416;24.598;2023-05-29T07:08:21;98523.22;;;22.72;100.00
8286;BME280;4181;43.416;24.598;2023-05-29T07:10:46;98545.63;;;22.60;100.00
8286;BME280;4181;43.416;24.598;2023-05-29T07:13:16;98537.66;;;22.58;100.00
8286;BME280;4181;43.416;24.598;2023-05-29T07:15:43;98545.03;;;22.51;100.00
8286;BME280;4181;43.416;24.598;2023-05-29T07:18:09;98533.34;;;22.42;100.00
8286;BME280;4181;43.416;24.598;2023-05-29T07:20:38;98536.28;;;22.30;100.00
8286;BME280;4181;43.416;24.598;2023-05-29T07:23:03;98531.31;;;22.20;100.00
8286;BME280;4181;43.416;24.598;2023-05-29T07:25:30;98517.38;;;22.16;100.00
8286;BME280;4181;43.416;24.598;2023-05-29T07:27:55;98521.97;;;22.09;100.00
8286;BME280;4181;43.416;24.598;2023-05-29T07:30:21;98511.59;;;22.06;100.00
8286;BME280;4181;43.416;24.598;2023-05-29T07:32:47;98498.81;;;22.01;100.00
8286;BME280;4181;43.416;24.598;2023-05-29T07:35:12;98503.56;;;22.01;100.00
8286;BME280;4181;43.416;24.598;2023-05-29T07:37:37;98488.63;;;22.09;100.00
8286;BME280;4181;43.416;24.598;2023-05-29T07:40:03;98481.19;;;22.13;100.00
8286;BME280;4181;43.416;24.598;2023-05-29T07:42:31;98490.38;;;22.17;100.00
8286;BME280;4181;43.416;24.598;2023-05-29T07:44:57;98471.75;;;22.17;100.00
8286;BME280;4181;43.416;24.598;2023-05-29T07:47:23;98476.78;;;22.12;100.00
8286;BME280;4181;43.416;24.598;2023-05-29T07:49:48;98484.81;;;22.17;100.00
8286;BME280;4181;43.416;24.598;2023-05-29T07:52:14;98462.19;;;22.37;100.00
8286;BME280;4181;43.416;24.598;2023-05-29T07:54:39;98462.19;;;22.37;100.00
8286;BME280;4181;43.416;24.598;2023-05-29T07:57:05;98476.59;;;22.43;100.00
8286;BME280;4181;43.416;24.598;2023-05-29T07:59:35;98480.59;;;22.45;100.00
8286;BME280;4181;43.416;24.598;2023-05-29T08:02:01;98479.94;;;22.52;100.00
8286;BME280;4181;43.416;24.598;2023-05-29T08:04:28;98490.78;;;22.57;100.00
8286;BME280;4181;43.416;24.598;2023-05-29T08:06:54;98500.22;;;22.75;100.00
8286;BME280;4181;43.416;24.598;2023-05-29T08:09:20;98500.19;;;22.94;100.00
8286;BME280;4181;43.416;24.598;2023-05-29T08:11:45;98509.88;;;23.04;100.00
8286;BME280;4181;43.416;24.598;2023-05-29T08:14:12;98515.41;;;23.26;100.00
8286;BME280;4181;43.416;24.598;2023-05-29T08:16:37;98488.69;;;23.74;100.00
8286;BME280;4181;43.416;24.598;2023-05-29T08:19:03;98491.16;;;24.09;100.00
8286;BME280;4181;43.416;24.598;2023-05-29T08:21:29;98550.03;;;24.37;100.00
8286;BME280;4181;43.416;24.598;2023-05-29T08:23:57;98587.53;;;24.76;100.00
8286;BME280;4181;43.416;24.598;2023-05-29T08:26:22;98634.03;;;24.98;100.00
8286;BME280;4181;43.416;24.598;2023-05-29T08:28:48;98692.06;;;24.85;100.00
8286;BME280;4181;43.416;24.598;2023-05-29T08:31:13;98746.63;;;24.57;100.00
8286;BME280;4181;43.416;24.598;2023-05-29T08:33:39;98777.69;;;24.29;100.00
8286;BME280;4181;43.416;24.598;2023-05-29T08:36:05;98755.56;;;24.40;100.00
8286;BME280;4181;43.416;24.598;2023-05-29T08:38:30;98721.88;;;24.52;100.00
8286;BME280;4181;43.416;24.598;2023-05-29T08:40:57;98713.50;;;24.52;100.00
8286;BME280;4181;43.416;24.598;2023-05-29T08:43:30;98759.41;;;24.58;100.00
8286;BME280;4181;43.416;24.598;2023-05-29T08:45:59;98778.31;;;24.68;100.00
8286;BME280;4181;43.416;24.598;2023-05-29T08:48:27;98821.00;;;24.72;100.00
8286;BME280;4181;43.416;24.598;2023-05-29T08:50:54;98827.00;;;24.74;100.00
8286;BME280;4181;43.416;24.598;2023-05-29T08:53:23;98858.25;;;24.60;100.00
8286;BME280;4181;43.416;24.598;2023-05-29T08:55:50;98861.72;;;24.54;100.00
8286;BME280;4181;43.416;24.598;2023-05-29T08:58:18;98826.41;;;24.61;100.00
8286;BME280;4181;43.416;24.598;2023-05-29T09:00:46;98880.72;;;24.45;100.00
8286;BME280;4181;43.416;24.598;2023-05-29T09:03:12;98893.78;;;24.41;100.00
8286;BME280;4181;43.416;24.598;2023-05-29T09:05:41;98867.94;;;24.44;100.00
8286;BME280;4181;43.416;24.598;2023-05-29T09:08:11;98854.88;;;24.48;100.00
8286;BME280;4181;43.416;24.598;2023-05-29T09:10:44;98847.41;;;24.55;100.00
8286;BME280;4181;43.416;24.598;2023-05-29T09:13:11;98889.75;;;24.61;100.00
8286;BME280;4181;43.416;24.598;2023-05-29T09:15:37;98921.63;;;24.60;100.00
8286;BME280;4181;43.416;24.598;2023-05-29T09:18:05;98892.03;;;24.78;100.00
8286;BME280;4181;43.416;24.598;2023-05-29T09:20:31;98899.66;;;25.07;100.00
8286;BME280;4181;43.416;24.598;2023-05-29T09:23:04;98892.69;;;25.24;100.00
8286;BME280;4181;43.416;24.598;2023-05-29T09:25:35;98928.25;;;25.27;100.00
8286;BME280;4181;43.416;24.598;2023-05-29T09:28:03;98963.53;;;25.12;100.00
8286;BME280;4181;43.416;24.598;2023-05-29T09:33:07;98941.44;;;24.77;100.00
8286;BME280;4181;43.416;24.598;2023-05-29T09:38:05;98963.44;;;25.05;100.00
8286;BME280;4181;43.416;24.598;2023-05-29T09:40:36;98990.66;;;25.12;100.00
8286;BME280;4181;43.416;24.598;2023-05-29T09:43:09;99026.56;;;25.13;100.00
8286;BME280;4181;43.416;24.598;2023-05-29T09:45:41;99090.81;;;24.94;100.00
8286;BME280;4181;43.416;24.598;2023-05-29T09:48:13;99071.53;;;24.85;100.00
8286;BME280;4181;43.416;24.598;2023-05-29T09:50:39;99073.53;;;24.85;100.00
8286;BME280;4181;43.416;24.598;2023-05-29T09:55:42;99127.47;;;24.92;100.00
8286;BME280;4181;43.416;24.598;2023-05-29T09:58:12;99153.09;;;24.98;100.00
8286;BME280;4181;43.416;24.598;2023-05-29T10:00:41;99127.75;;;25.07;100.00
8286;BME280;4181;43.416;24.598;2023-05-29T10:03:06;99073.25;;;25.39;100.00
8286;BME280;4181;43.416;24.598;2023-05-29T10:05:31;99036.25;;;25.71;100.00
8286;BME280;4181;43.416;24.598;2023-05-29T10:07:58;99076.59;;;25.74;100.00
8286;BME280;4181;43.416;24.598;2023-05-29T10:10:25;99104.91;;;25.72;100.00
8286;BME280;4181;43.416;24.598;2023-05-29T10:12:53;99139.50;;;25.87;100.00
8286;BME280;4181;43.416;24.598;2023-05-29T10:15:20;99167.13;;;25.92;100.00
8286;BME280;4181;43.416;24.598;2023-05-29T10:17:53;99151.94;;;25.93;100.00
8286;BME280;4181;43.416;24.598;2023-05-29T10:20:20;99226.91;;;25.87;100.00
8286;BME280;4181;43.416;24.598;2023-05-29T10:22:49;99254.00;;;25.83;100.00
8286;BME280;4181;43.416;24.598;2023-05-29T10:25:18;99278.78;;;25.62;100.00
8286;BME280;4181;43.416;24.598;2023-05-29T10:27:44;99246.47;;;25.42;100.00
8286;BME280;4181;43.416;24.598;2023-05-29T10:30:29;99246.06;;;25.21;100.00
8286;BME280;4181;43.416;24.598;2023-05-29T10:36:20;99239.50;;;26.00;100.00
8286;BME280;4181;43.416;24.598;2023-05-29T10:38:50;99256.00;;;26.05;100.00
8286;BME280;4181;43.416;24.598;2023-05-29T10:44:00;99338.09;;;26.43;100.00
8286;BME280;4181;43.416;24.598;2023-05-29T10:49:20;99404.00;;;26.17;100.00
8286;BME280;4181;43.416;24.598;2023-05-29T10:51:46;99410.09;;;25.81;100.00
8286;BME280;4181;43.416;24.598;2023-05-29T10:54:13;99438.69;;;25.37;100.00
8286;BME280;4181;43.416;24.598;2023-05-29T10:56:40;99440.03;;;24.77;100.00
8286;BME280;4181;43.416;24.598;2023-05-29T10:59:07;99399.56;;;25.02;100.00
8286;BME280;4181;43.416;24.598;2023-05-29T11:01:33;99410.25;;;25.16;100.00
8286;BME280;4181;43.416;24.598;2023-05-29T11:06:43;99382.84;;;25.37;100.00
8286;BME280;4181;43.416;24.598;2023-05-29T11:09:28;99420.13;;;24.94;100.00
8286;BME280;4181;43.416;24.598;2023-05-29T11:15:00;99349.50;;;25.09;100.00
8286;BME280;4181;43.416;24.598;2023-05-29T11:17:52;99351.41;;;25.24;100.00
8286;BME280;4181;43.416;24.598;2023-05-29T11:20:41;99367.22;;;25.17;100.00
8286;BME280;4181;43.416;24.598;2023-05-29T11:23:07;99385.03;;;25.12;100.00
8286;BME280;4181;43.416;24.598;2023-05-29T11:25:37;99392.56;;;24.73;100.00
8286;BME280;4181;43.416;24.598;2023-05-29T11:28:03;99375.09;;;24.45;100.00
8286;BME280;4181;43.416;24.598;2023-05-29T11:30:40;99347.31;;;24.18;100.00
8286;BME280;4181;43.416;24.598;2023-05-29T11:33:07;99315.09;;;23.89;100.00
8286;BME280;4181;43.416;24.598;2023-05-29T11:35:34;99276.97;;;23.19;100.00
8286;BME280;4181;43.416;24.598;2023-05-29T11:38:03;99218.41;;;23.15;100.00
8286;BME280;4181;43.416;24.598;2023-05-29T11:40:35;99175.53;;;22.73;100.00
8286;BME280;4181;43.416;24.598;2023-05-29T11:43:02;99141.63;;;22.28;100.00
8286;BME280;4181;43.416;24.598;2023-05-29T11:45:32;99102.16;;;21.83;100.00
8286;BME280;4181;43.416;24.598;2023-05-29T11:48:01;99049.06;;;21.48;100.00
8286;BME280;4181;43.416;24.598;2023-05-29T11:50:31;98990.19;;;21.03;100.00
8286;BME280;4181;43.416;24.598;2023-05-29T11:52:58;98931.81;;;20.87;100.00
8286;BME280;4181;43.416;24.598;2023-05-29T11:55:25;98906.97;;;20.91;100.00
8286;BME280;4181;43.416;24.598;2023-05-29T11:57:56;98878.31;;;20.99;100.00
8286;BME280;4181;43.416;24.598;2023-05-29T12:00:22;98877.94;;;21.12;100.00
8286;BME280;4181;43.416;24.598;2023-05-29T12:02:47;98888.34;;;21.03;100.00
8286;BME280;4181;43.416;24.598;2023-05-29T12:05:14;98879.34;;;20.94;100.00
8286;BME280;4181;43.416;24.598;2023-05-29T12:07:53;98862.91;;;21.13;100.00
8286;BME280;4181;43.416;24.598;2023-05-29T12:10:21;98845.13;;;21.14;100.00
8286;BME280;4181;43.416;24.598;2023-05-29T12:12:55;98817.31;;;20.99;100.00
8286;BME280;4181;43.416;24.598;2023-05-29T12:15:21;98780.16;;;20.76;100.00
8286;BME280;4181;43.416;24.598;2023-05-29T12:17:51;98740.84;;;20.86;100.00
8286;BME280;4181;43.416;24.598;2023-05-29T12:20:17;98740.25;;;20.92;100.00
8286;BME280;4181;43.416;24.598;2023-05-29T12:22:45;98722.22;;;20.86;100.00
8286;BME280;4181;43.416;24.598;2023-05-29T12:27:43;98667.44;;;20.95;100.00
8286;BME280;4181;43.416;24.598;2023-05-29T12:30:21;98641.13;;;21.17;100.00
8286;BME280;4181;43.416;24.598;2023-05-29T12:32:48;98636.47;;;21.21;100.00
8286;BME280;4181;43.416;24.598;2023-05-29T12:35:22;98622.44;;;21.29;100.00
8286;BME280;4181;43.416;24.598;2023-05-29T12:37:51;98601.38;;;21.28;100.00
8286;BME280;4181;43.416;24.598;2023-05-29T12:40:28;98575.00;;;21.34;100.00
8286;BME280;4181;43.416;24.598;2023-05-29T12:42:59;98584.75;;;21.44;100.00
8286;BME280;4181;43.416;24.598;2023-05-29T12:45:26;98594.66;;;21.61;100.00
8286;BME280;4181;43.416;24.598;2023-05-29T12:47:57;98591.16;;;21.79;100.00
8286;BME280;4181;43.416;24.598;2023-05-29T12:50:27;98593.28;;;21.86;100.00
8286;BME280;4181;43.416;24.598;2023-05-29T12:53:03;98624.94;;;22.00;100.00
8286;BME280;4181;43.416;24.598;2023-05-29T12:55:34;98646.59;;;22.10;100.00
8286;BME280;4181;43.416;24.598;2023-05-29T12:58:02;98658.69;;;22.37;100.00
8286;BME280;4181;43.416;24.598;2023-05-29T13:00:28;98682.75;;;22.48;100.00
8286;BME280;4181;43.416;24.598;2023-05-29T13:02:54;98708.84;;;22.60;100.00
8286;BME280;4181;43.416;24.598;2023-05-29T13:05:20;98726.78;;;22.62;100.00
8286;BME280;4181;43.416;24.598;2023-05-29T13:07:48;98730.94;;;22.72;100.00
8286;BME280;4181;43.416;24.598;2023-05-29T13:10:14;98732.44;;;22.85;100.00
8286;BME280;4181;43.416;24.598;2023-05-29T13:12:41;98722.97;;;22.89;100.00
8286;BME280;4181;43.416;24.598;2023-05-29T13:15:07;98738.84;;;22.89;100.00
8286;BME280;4181;43.416;24.598;2023-05-29T13:17:33;98737.34;;;22.91;100.00
8286;BME280;4181;43.416;24.598;2023-05-29T13:19:59;98749.91;;;22.85;100.00
8286;BME280;4181;43.416;24.598;2023-05-29T13:22:25;98751.91;;;22.85;100.00
8286;BME280;4181;43.416;24.598;2023-05-29T13:24:56;98716.69;;;22.73;100.00
8286;BME280;4181;43.416;24.598;2023-05-29T13:27:22;98681.13;;;22.63;100.00
8286;BME280;4181;43.416;24.598;2023-05-29T13:29:49;98655.00;;;22.68;100.00
8286;BME280;4181;43.416;24.598;2023-05-29T13:32:15;98626.09;;;22.72;100.00